Terminal Aerodrome Forecast
Issued by NWS Quad Cities IA IL

Home | Current Version | Previous Version | Text Only | Print | Product List | Glossary On
Versions: 1 2 3 4 5 6 7 8 9 10 11 12 13 14 15 16 17 18 19 20 21 22 23 24 25 26 27 28 29 30
862
FTUS43 KDVN 191736
TAFMLI
TAF
KMLI 191736Z 1918/2018 08007KT 3SM BR VCSH OVC035
     FM192000 08006KT 3SM -RA BR OVC030
     FM192200 09005KT 2SM -RA BR OVC010
     FM200400 09003KT 1SM -DZ BR OVC007
     FM200800 09003KT 1/4SM -DZ FG OVC001=

USA.gov is the U.S. government's official web portal to all federal, state and local government web resources and services.